Terminal Aerodrome Forecast
Issued by NWS

Home | Current Version | Previous Version | Text Only | Print | Product List | Glossary On
Versions: 1 2 3 4 5 6 7 8 9 10 11 12 13 14 15 16 17 18 19 20 21 22 23
000
FTUS46 KOTX 232333
TAFCOE
TAF
KCOE 232333Z 2400/2424 01006KT P6SM VCSH SCT060 BKN100 OVC150
     FM240300 06005KT P6SM VCSH SCT060 BKN100 OVC150
     FM240800 05008KT P6SM SCT080 BKN150 BKN200
     FM242000 23012G19KT P6SM FEW100 BKN200
      AMD LTD TO CLD AND VIS=

USA.gov is the U.S. government's official web portal to all federal, state and local government web resources and services.